Planet Ace — 3EYF9 — position and weather

sailwx.info

Track history (hours):
 
Tides and Currents Weather Stations Pressure Air Temp Water Temp Dewpoint Dewpoint Depression Visibility Wind Speed Wind Dir Waves Ship Positions

Planet Ace

Last reported at 2017-Jun-29 05:28 UTC. Time now 2017-Jun-29 05:32 UTC.
Position N 51°19' E 003°13'.

Length 188 m; beam 28.2 m.

Type: Cargo ship. MMSI: 352168000.

Date/timePositionNaut miles runAvg speedWind from/ knotsBaromVisibWave heightAir tempDewpointWater temp
2017-Jun-29 05:28N 51°19' E 003°13'0 0.0
2017-Jun-29 04:58N 51°19' E 003°13'0 0.0
2017-Jun-29 04:28N 51°19' E 003°13'0 0.0
2017-Jun-29 03:58N 51°19' E 003°13'0 0.0
2017-Jun-29 03:28N 51°19' E 003°13'0 0.0
2017-Jun-29 02:58N 51°19' E 003°13'0 0.0
2017-Jun-29 02:28N 51°19' E 003°13'0 0.0
2017-Jun-29 01:55N 51°19' E 003°13'0 0.0
2017-Jun-29 01:28N 51°19' E 003°13'1 1.8
2017-Jun-29 01:00N 51°19' E 003°14'1 1.7
2017-Jun-29 00:29N 51°18' E 003°14'0 0.0
2017-Jun-28 23:59N 51°18' E 003°14'0 0.0
2017-Jun-28 23:29N 51°18' E 003°14'0 0.0
2017-Jun-28 22:59N 51°18' E 003°14'0 0.0
2017-Jun-28 22:29N 51°18' E 003°14'0 0.0
2017-Jun-28 21:59N 51°18' E 003°14'0 0.0
2017-Jun-28 21:29N 51°18' E 003°14'0 0.0
2017-Jun-28 20:59N 51°18' E 003°14'0 0.0
2017-Jun-28 20:29N 51°18' E 003°14'0 0.0
2017-Jun-28 19:59N 51°18' E 003°14'0 0.0
2017-Jun-28 19:29N 51°18' E 003°14'0 0.0
2017-Jun-28 18:59N 51°18' E 003°14'0 0.0
2017-Jun-28 18:29N 51°18' E 003°14'0 0.0
2017-Jun-28 17:59N 51°18' E 003°14'0 0.0
2017-Jun-28 17:29N 51°18' E 003°14'0 0.0
2017-Jun-28 16:59N 51°18' E 003°14'0 0.0
2017-Jun-28 16:29N 51°18' E 003°14'0 0.0
2017-Jun-28 15:59N 51°18' E 003°14'0 0.0
2017-Jun-28 15:29N 51°18' E 003°14'0 0.0
2017-Jun-28 15:00N 51°18' E 003°14'1 1.5
2017-Jun-28 14:00N 51°19' E 003°13'1 1.3
2017-Jun-28 13:30N 51°20' E 003°13'0 0.5
2017-Jun-28 13:00N 51°20' E 003°13'4 7.0
2017-Jun-28 12:30N 51°23' E 003°09'611.8
2017-Jun-28 12:00N 51°24' E 002°60'612.3
2017-Jun-28 11:30N 51°22' E 002°51'511.0
2017-Jun-28 11:00N 51°22' E 002°42'4 8.5
2017-Jun-28 10:30N 51°22' E 002°35'0 0.9
2017-Jun-28 10:00N 51°21' E 002°34'1 1.5
2017-Jun-28 09:30N 51°22' E 002°33'4 7.2
2017-Jun-28 09:00N 51°21' E 002°28'4 8.1
2017-Jun-28 08:30N 51°20' E 002°22'4 8.6
2017-Jun-28 08:00N 51°17' E 002°16'5 9.1
2017-Jun-28 07:30N 51°15' E 002°10'5 9.5
2017-Jun-28 07:00N 51°12' E 002°03'714.0
2017-Jun-28 06:31N 51°09' E 001°54'815.2
2017-Jun-28 06:01N 51°04' E 001°44'815.8
2017-Jun-28 05:31N 50°59' E 001°34'816.2
2017-Jun-28 05:00N 50°53' E 001°26'916.1
2017-Jun-28 04:29N 50°45' E 001°22'6215.4
2017-Jun-28 00:25N 49°58' E 000°18'716.6
2017-Jun-28 00:00N 49°52' E 000°12'917.2
2017-Jun-27 23:31N 49°45' E 000°04'816.3
2017-Jun-27 23:00N 49°38' W 000°01'612.7
2017-Jun-27 22:30N 49°31' E 000°01'4 9.0
2017-Jun-27 22:00N 49°29' E 000°07'2 4.8
2017-Jun-27 21:30N 49°29' E 000°10'0 0.1
2017-Jun-27 21:00N 49°29' E 000°10'1 1.2
2017-Jun-27 20:28N 49°28' E 000°11'0 0.0
2017-Jun-27 19:58N 49°28' E 000°11'0 0.0
2017-Jun-27 19:28N 49°28' E 000°11'0 0.0
2017-Jun-27 18:58N 49°28' E 000°11'0 0.0
2017-Jun-27 18:28N 49°28' E 000°11'0 0.0
2017-Jun-27 17:58N 49°28' E 000°11'0 0.0
2017-Jun-27 17:28N 49°28' E 000°11'0 0.0
2017-Jun-27 16:58N 49°28' E 000°11'0 0.0
2017-Jun-27 16:28N 49°28' E 000°11'0 0.0
2017-Jun-27 15:58N 49°28' E 000°11'0 0.0
2017-Jun-27 15:28N 49°28' E 000°11'0 0.0
2017-Jun-27 14:58N 49°28' E 000°11'0 0.0
2017-Jun-27 13:58N 49°28' E 000°11'0 0.0
2017-Jun-27 13:28N 49°28' E 000°11'0 0.0
2017-Jun-27 12:58N 49°28' E 000°11'0 0.0
2017-Jun-27 12:28N 49°28' E 000°11'0 0.0
2017-Jun-27 11:58N 49°28' E 000°11'0 0.0
2017-Jun-27 11:28N 49°28' E 000°11'0 0.0
2017-Jun-27 10:58N 49°28' E 000°11'0 0.0
2017-Jun-27 10:28N 49°28' E 000°11'0 0.0
2017-Jun-27 09:58N 49°28' E 000°11'0 0.0
2017-Jun-27 09:28N 49°28' E 000°11'0 0.0
2017-Jun-27 08:58N 49°28' E 000°11'0 0.0
2017-Jun-27 08:28N 49°28' E 000°11'0 0.0
2017-Jun-27 07:58N 49°28' E 000°11'0 0.0
2017-Jun-27 07:28N 49°28' E 000°11'0 0.0
2017-Jun-27 06:58N 49°28' E 000°11'0 0.0
2017-Jun-27 06:28N 49°28' E 000°11'0 0.0
2017-Jun-27 05:58N 49°28' E 000°11'0 0.0
2017-Jun-27 05:28N 49°28' E 000°11'0 0.0
2017-Jun-27 04:58N 49°28' E 000°11'0 0.0
2017-Jun-27 04:31N 49°28' E 000°11'0 0.0
2017-Jun-27 04:01N 49°28' E 000°11'0 0.0
2017-Jun-27 03:31N 49°28' E 000°11'0 0.0
2017-Jun-27 03:00N 49°28' E 000°11'0 0.0
2017-Jun-27 02:30N 49°28' E 000°11'0 0.0
2017-Jun-27 02:00N 49°28' E 000°11'0 0.0
2017-Jun-27 01:30N 49°28' E 000°11'0 0.0
2017-Jun-27 01:00N 49°28' E 000°11'0 0.0
2017-Jun-27 00:30N 49°28' E 000°11'0 0.0
2017-Jun-27 00:00N 49°28' E 000°11'0 0.0
2017-Jun-26 23:30N 49°28' E 000°11'1 1.2
2017-Jun-26 23:00N 49°29' E 000°11'0 0.7
2017-Jun-26 22:31N 49°29' E 000°10'1 1.0
2017-Jun-26 22:01N 49°28' E 000°10'3 6.9
2017-Jun-26 21:31N 49°29' E 000°04'611.1
2017-Jun-26 21:00N 49°30' W 000°04'5 9.2
2017-Jun-26 20:31N 49°31' W 000°11'1 2.5
2017-Jun-26 20:01N 49°32' W 000°12'2 3.2
2017-Jun-26 19:30N 49°33' W 000°14'5 9.8
2017-Jun-26 19:00N 49°34' W 000°21'613.0
2017-Jun-26 18:31N 49°36' W 000°31'713.3
2017-Jun-26 18:00N 49°39' W 000°40'612.6
2017-Jun-26 17:30N 49°40' W 000°50'612.1
2017-Jun-26 17:00N 49°45' W 000°55'612.1
2017-Jun-26 16:31N 49°47' W 001°04'510.9
2017-Jun-26 16:00N 49°50' W 001°12'5 9.8
2017-Jun-26 15:30N 49°51' W 001°19'5 9.7
2017-Jun-26 15:01N 49°53' W 001°26'510.1
2017-Jun-26 14:31N 49°53' W 001°34'1111.0
2017-Jun-26 13:31N 49°53' W 001°51'612.6
2017-Jun-26 13:00N 49°53' W 002°01'714.0
2017-Jun-26 12:31N 49°54' W 002°12'2215.2
2017-Jun-26 11:04N 49°49' W 002°45'115.6
2017-Jun-26 11:00N 49°49' W 002°46'915.7
2017-Jun-26 10:27N 49°45' W 002°58'715.7
2017-Jun-26 09:59N 49°42' W 003°08'916.0
2017-Jun-26 09:26N 49°37' W 003°20'715.9
2017-Jun-26 08:59N 49°34' W 003°30'815.9
2017-Jun-26 08:30N 49°30' W 003°40'1416.2
2017-Jun-26 07:37N 49°23' W 003°59'416.5
2017-Jun-26 07:22N 49°21' W 004°04'716.6
2017-Jun-26 06:59N 49°17' W 004°13'1616.7
2017-Jun-26 06:00N 49°09' W 004°35'2216.6
2017-Jun-26 04:41N 48°58' W 005°03'316.3
2017-Jun-26 04:30N 48°56' W 005°07'816.1
2017-Jun-26 04:00N 48°52' W 005°17'815.7
2017-Jun-26 03:30N 48°48' W 005°28'815.2
2017-Jun-26 03:00N 48°43' W 005°36'1015.4
2017-Jun-26 02:22N 48°35' W 005°44'2514.5
2017-Jun-26 00:39N 48°12' W 005°60'5113.2
2017-Jun-25 20:48N 47°27' W 006°34'6714.3
2017-Jun-25 16:08N 46°28' W 007°21'213.9
2017-Jun-25 16:00N 46°27' W 007°22'1615.0
2017-Jun-25 14:56N 46°13' W 007°34'37711.9
2017-Jun-24 07:07N 40°08' W 009°49'216.4
2017-Jun-24 06:59N 40°06' W 009°49'816.0
2017-Jun-24 06:29N 39°58' W 009°49'1215.7
2017-Jun-24 05:42N 39°46' W 009°49'315.6
2017-Jun-24 05:30N 39°43' W 009°48'815.9
2017-Jun-24 05:00N 39°35' W 009°49'816.2
2017-Jun-24 04:30N 39°27' W 009°49'815.9
2017-Jun-24 04:00N 39°19' W 009°50'815.8
2017-Jun-24 03:30N 39°11' W 009°51'815.9
2017-Jun-24 03:00N 39°03' W 009°50'815.5
2017-Jun-24 02:30N 38°55' W 009°50'815.8
2017-Jun-24 02:00N 38°47' W 009°50'815.9
2017-Jun-24 01:30N 38°40' W 009°49'816.0
2017-Jun-24 01:01N 38°32' W 009°47'815.5
2017-Jun-24 00:30N 38°24' W 009°44'815.5
2017-Jun-24 00:00N 38°17' W 009°41'815.2
2017-Jun-23 23:30N 38°10' W 009°39'815.0
2017-Jun-23 23:00N 38°02' W 009°37'714.8
2017-Jun-23 22:31N 37°55' W 009°36'714.8
2017-Jun-23 22:00N 37°48' W 009°34'715.0
2017-Jun-23 21:31N 37°40' W 009°32'815.6
2017-Jun-23 21:01N 37°33' W 009°30'815.3
2017-Jun-23 20:31N 37°25' W 009°27'815.5
2017-Jun-23 20:01N 37°18' W 009°25'815.5
2017-Jun-23 19:30N 37°10' W 009°22'815.2
2017-Jun-23 19:01N 37°03' W 009°21'815.7
2017-Jun-23 18:31N 36°55' W 009°18'815.5
2017-Jun-23 18:01N 36°49' W 009°13'815.4
2017-Jun-23 17:30N 36°44' W 009°05'816.1
2017-Jun-23 17:00N 36°41' W 008°56'815.8
2017-Jun-23 16:30N 36°38' W 008°46'815.4
2017-Jun-23 16:00N 36°37' W 008°37'815.1
2017-Jun-23 15:30N 36°34' W 008°28'815.3
2017-Jun-23 15:01N 36°32' W 008°19'1615.5
2017-Jun-23 14:00N 36°27' W 008°01'816.1
2017-Jun-23 13:31N 36°25' W 007°51'816.2
2017-Jun-23 13:01N 36°23' W 007°41'816.4
2017-Jun-23 12:30N 36°21' W 007°31'916.9
2017-Jun-23 12:00N 36°18' W 007°21'8916.2
2017-Jun-23 06:31N 35°57' W 005°35'013.3
2017-Jun-23 06:30N 35°57' W 005°34'5 0.1
2017-Jun-21 12:19N 35°54' W 005°30'2 3.0
2017-Jun-21 11:32N 35°54' W 005°33'4 0.7
2017-Jun-21 06:01N 35°57' W 005°31'211.8
2017-Jun-21 05:52N 35°59' W 005°29'411.1
2017-Jun-21 05:30N 35°60' W 005°24'611.8
2017-Jun-21 05:00N 36°01' W 005°17'714.1
2017-Jun-21 04:30N 36°02' W 005°09'13912.7
2017-Jun-20 17:36N 36°25' W 002°19'315.0
2017-Jun-20 17:23N 36°26' W 002°15'615.2
2017-Jun-20 17:00N 36°26' W 002°08'1615.3
2017-Jun-20 15:57N 36°29' W 001°48'1515.3
2017-Jun-20 14:59N 36°31' W 001°30'1715.1
2017-Jun-20 13:51N 36°34' W 001°09'515.2
2017-Jun-20 13:30N 36°35' W 001°02'815.5
2017-Jun-20 13:00N 36°36' W 000°53'815.5
2017-Jun-20 12:30N 36°37' W 000°43'815.5
2017-Jun-20 12:00N 36°38' W 000°34'815.4
2017-Jun-20 11:27N 36°40' W 000°23'715.3
2017-Jun-20 11:00N 36°41' W 000°15'715.0
2017-Jun-20 10:30N 36°42' W 000°06'714.9
2017-Jun-20 10:00N 36°43' E 000°03'714.8
2017-Jun-20 09:30N 36°45' E 000°13'714.6
2017-Jun-20 09:00N 36°46' E 000°22'714.3
2017-Jun-20 08:30N 36°47' E 000°30'714.5
2017-Jun-20 08:00N 36°48' E 000°39'714.6
2017-Jun-20 07:30N 36°49' E 000°48'714.4
2017-Jun-20 07:00N 36°51' E 000°57'714.6
2017-Jun-20 06:30N 36°52' E 001°06'714.7
2017-Jun-20 06:00N 36°54' E 001°15'2515.1
2017-Jun-20 04:21N 36°58' E 001°46'1715.2
2017-Jun-20 03:14N 36°60' E 002°07'515.2
2017-Jun-20 02:53N 37°00' E 002°14'615.1
2017-Jun-20 02:30N 37°01' E 002°21'714.9
2017-Jun-20 02:00N 37°03' E 002°30'1214.9
2017-Jun-20 01:12N 37°04' E 002°45'314.9
2017-Jun-20 01:00N 37°05' E 002°49'715.0
2017-Jun-20 00:30N 37°06' E 002°58'714.9
2017-Jun-20 00:00N 37°07' E 003°07'814.8
2017-Jun-19 23:30N 37°09' E 003°16'714.8
2017-Jun-19 23:00N 37°10' E 003°25'714.7
2017-Jun-19 22:30N 37°11' E 003°34'714.5
2017-Jun-19 22:00N 37°12' E 003°43'714.4
2017-Jun-19 21:30N 37°14' E 003°52'714.5
2017-Jun-19 21:00N 37°15' E 004°01'714.6
2017-Jun-19 20:30N 37°16' E 004°10'714.7
2017-Jun-19 20:00N 37°17' E 004°19'714.6
2017-Jun-19 19:30N 37°18' E 004°28'714.8
2017-Jun-19 19:00N 37°19' E 004°38'714.9
2017-Jun-19 18:30N 37°21' E 004°47'714.8
2017-Jun-19 18:00N 37°22' E 004°56'714.8
2017-Jun-19 17:30N 37°24' E 005°05'715.0
2017-Jun-19 17:00N 37°24' E 005°14'814.9
2017-Jun-19 16:30N 37°25' E 005°24'714.9
2017-Jun-19 16:00N 37°26' E 005°33'714.8
2017-Jun-19 15:30N 37°28' E 005°42'714.8
2017-Jun-19 15:00N 37°29' E 005°51'1814.9
2017-Jun-19 13:49N 37°32' E 006°13'1714.8
2017-Jun-19 12:39N 37°35' E 006°35'4414.8
2017-Jun-19 09:42N 37°42' E 007°29'1914.8
2017-Jun-19 08:26N 37°43' E 007°53'  
Track history (hours):
 
Tides and Currents Weather Stations Pressure Air Temp Water Temp Dewpoint Dewpoint Depression Visibility Wind Speed Wind Dir Waves Ship Positions

Planet Ace

Last reported at 2017-Jun-29 05:28 UTC. Time now 2017-Jun-29 05:32 UTC.
Position N 51°19' E 003°13'.

Length 188 m; beam 28.2 m.

Type: Cargo ship. MMSI: 352168000.

Date/timePositionNaut miles runAvg speedWind from/ knotsBaromVisibWave heightAir tempDewpointWater temp
2017-Jun-29 05:28N 51°19' E 003°13'0 0.0
2017-Jun-29 04:58N 51°19' E 003°13'0 0.0
2017-Jun-29 04:28N 51°19' E 003°13'0 0.0
2017-Jun-29 03:58N 51°19' E 003°13'0 0.0
2017-Jun-29 03:28N 51°19' E 003°13'0 0.0
2017-Jun-29 02:58N 51°19' E 003°13'0 0.0
2017-Jun-29 02:28N 51°19' E 003°13'0 0.0
2017-Jun-29 01:55N 51°19' E 003°13'0 0.0
2017-Jun-29 01:28N 51°19' E 003°13'1 1.8
2017-Jun-29 01:00N 51°19' E 003°14'1 1.7
2017-Jun-29 00:29N 51°18' E 003°14'0 0.0
2017-Jun-28 23:59N 51°18' E 003°14'0 0.0
2017-Jun-28 23:29N 51°18' E 003°14'0 0.0
2017-Jun-28 22:59N 51°18' E 003°14'0 0.0
2017-Jun-28 22:29N 51°18' E 003°14'0 0.0
2017-Jun-28 21:59N 51°18' E 003°14'0 0.0
2017-Jun-28 21:29N 51°18' E 003°14'0 0.0
2017-Jun-28 20:59N 51°18' E 003°14'0 0.0
2017-Jun-28 20:29N 51°18' E 003°14'0 0.0
2017-Jun-28 19:59N 51°18' E 003°14'0 0.0
2017-Jun-28 19:29N 51°18' E 003°14'0 0.0
2017-Jun-28 18:59N 51°18' E 003°14'0 0.0
2017-Jun-28 18:29N 51°18' E 003°14'0 0.0
2017-Jun-28 17:59N 51°18' E 003°14'0 0.0
2017-Jun-28 17:29N 51°18' E 003°14'0 0.0
2017-Jun-28 16:59N 51°18' E 003°14'0 0.0
2017-Jun-28 16:29N 51°18' E 003°14'0 0.0
2017-Jun-28 15:59N 51°18' E 003°14'0 0.0
2017-Jun-28 15:29N 51°18' E 003°14'0 0.0
2017-Jun-28 15:00N 51°18' E 003°14'1 1.5
2017-Jun-28 14:00N 51°19' E 003°13'1 1.3
2017-Jun-28 13:30N 51°20' E 003°13'0 0.5
2017-Jun-28 13:00N 51°20' E 003°13'4 7.0
2017-Jun-28 12:30N 51°23' E 003°09'611.8
2017-Jun-28 12:00N 51°24' E 002°60'612.3
2017-Jun-28 11:30N 51°22' E 002°51'511.0
2017-Jun-28 11:00N 51°22' E 002°42'4 8.5
2017-Jun-28 10:30N 51°22' E 002°35'0 0.9
2017-Jun-28 10:00N 51°21' E 002°34'1 1.5
2017-Jun-28 09:30N 51°22' E 002°33'4 7.2
2017-Jun-28 09:00N 51°21' E 002°28'4 8.1
2017-Jun-28 08:30N 51°20' E 002°22'4 8.6
2017-Jun-28 08:00N 51°17' E 002°16'5 9.1
2017-Jun-28 07:30N 51°15' E 002°10'5 9.5
2017-Jun-28 07:00N 51°12' E 002°03'714.0
2017-Jun-28 06:31N 51°09' E 001°54'815.2
2017-Jun-28 06:01N 51°04' E 001°44'815.8
2017-Jun-28 05:31N 50°59' E 001°34'816.2
2017-Jun-28 05:00N 50°53' E 001°26'916.1
2017-Jun-28 04:29N 50°45' E 001°22'6215.4
2017-Jun-28 00:25N 49°58' E 000°18'716.6
2017-Jun-28 00:00N 49°52' E 000°12'917.2
2017-Jun-27 23:31N 49°45' E 000°04'816.3
2017-Jun-27 23:00N 49°38' W 000°01'612.7
2017-Jun-27 22:30N 49°31' E 000°01'4 9.0
2017-Jun-27 22:00N 49°29' E 000°07'2 4.8
2017-Jun-27 21:30N 49°29' E 000°10'0 0.1
2017-Jun-27 21:00N 49°29' E 000°10'1 1.2
2017-Jun-27 20:28N 49°28' E 000°11'0 0.0
2017-Jun-27 19:58N 49°28' E 000°11'0 0.0
2017-Jun-27 19:28N 49°28' E 000°11'0 0.0
2017-Jun-27 18:58N 49°28' E 000°11'0 0.0
2017-Jun-27 18:28N 49°28' E 000°11'0 0.0
2017-Jun-27 17:58N 49°28' E 000°11'0 0.0
2017-Jun-27 17:28N 49°28' E 000°11'0 0.0
2017-Jun-27 16:58N 49°28' E 000°11'0 0.0
2017-Jun-27 16:28N 49°28' E 000°11'0 0.0
2017-Jun-27 15:58N 49°28' E 000°11'0 0.0
2017-Jun-27 15:28N 49°28' E 000°11'0 0.0
2017-Jun-27 14:58N 49°28' E 000°11'0 0.0
2017-Jun-27 13:58N 49°28' E 000°11'0 0.0
2017-Jun-27 13:28N 49°28' E 000°11'0 0.0
2017-Jun-27 12:58N 49°28' E 000°11'0 0.0
2017-Jun-27 12:28N 49°28' E 000°11'0 0.0
2017-Jun-27 11:58N 49°28' E 000°11'0 0.0
2017-Jun-27 11:28N 49°28' E 000°11'0 0.0
2017-Jun-27 10:58N 49°28' E 000°11'0 0.0
2017-Jun-27 10:28N 49°28' E 000°11'0 0.0
2017-Jun-27 09:58N 49°28' E 000°11'0 0.0
2017-Jun-27 09:28N 49°28' E 000°11'0 0.0
2017-Jun-27 08:58N 49°28' E 000°11'0 0.0
2017-Jun-27 08:28N 49°28' E 000°11'0 0.0
2017-Jun-27 07:58N 49°28' E 000°11'0 0.0
2017-Jun-27 07:28N 49°28' E 000°11'0 0.0
2017-Jun-27 06:58N 49°28' E 000°11'0 0.0
2017-Jun-27 06:28N 49°28' E 000°11'0 0.0
2017-Jun-27 05:58N 49°28' E 000°11'0 0.0
2017-Jun-27 05:28N 49°28' E 000°11'0 0.0
2017-Jun-27 04:58N 49°28' E 000°11'0 0.0
2017-Jun-27 04:31N 49°28' E 000°11'0 0.0
2017-Jun-27 04:01N 49°28' E 000°11'0 0.0
2017-Jun-27 03:31N 49°28' E 000°11'0 0.0
2017-Jun-27 03:00N 49°28' E 000°11'0 0.0
2017-Jun-27 02:30N 49°28' E 000°11'0 0.0
2017-Jun-27 02:00N 49°28' E 000°11'0 0.0
2017-Jun-27 01:30N 49°28' E 000°11'0 0.0
2017-Jun-27 01:00N 49°28' E 000°11'0 0.0
2017-Jun-27 00:30N 49°28' E 000°11'0 0.0
2017-Jun-27 00:00N 49°28' E 000°11'0 0.0
2017-Jun-26 23:30N 49°28' E 000°11'1 1.2
2017-Jun-26 23:00N 49°29' E 000°11'0 0.7
2017-Jun-26 22:31N 49°29' E 000°10'1 1.0
2017-Jun-26 22:01N 49°28' E 000°10'3 6.9
2017-Jun-26 21:31N 49°29' E 000°04'611.1
2017-Jun-26 21:00N 49°30' W 000°04'5 9.2
2017-Jun-26 20:31N 49°31' W 000°11'1 2.5
2017-Jun-26 20:01N 49°32' W 000°12'2 3.2
2017-Jun-26 19:30N 49°33' W 000°14'5 9.8
2017-Jun-26 19:00N 49°34' W 000°21'613.0
2017-Jun-26 18:31N 49°36' W 000°31'713.3
2017-Jun-26 18:00N 49°39' W 000°40'612.6
2017-Jun-26 17:30N 49°40' W 000°50'612.1
2017-Jun-26 17:00N 49°45' W 000°55'612.1
2017-Jun-26 16:31N 49°47' W 001°04'510.9
2017-Jun-26 16:00N 49°50' W 001°12'5 9.8
2017-Jun-26 15:30N 49°51' W 001°19'5 9.7
2017-Jun-26 15:01N 49°53' W 001°26'510.1
2017-Jun-26 14:31N 49°53' W 001°34'1111.0
2017-Jun-26 13:31N 49°53' W 001°51'612.6
2017-Jun-26 13:00N 49°53' W 002°01'714.0
2017-Jun-26 12:31N 49°54' W 002°12'2215.2
2017-Jun-26 11:04N 49°49' W 002°45'115.6
2017-Jun-26 11:00N 49°49' W 002°46'915.7
2017-Jun-26 10:27N 49°45' W 002°58'715.7
2017-Jun-26 09:59N 49°42' W 003°08'916.0
2017-Jun-26 09:26N 49°37' W 003°20'715.9
2017-Jun-26 08:59N 49°34' W 003°30'815.9
2017-Jun-26 08:30N 49°30' W 003°40'1416.2
2017-Jun-26 07:37N 49°23' W 003°59'416.5
2017-Jun-26 07:22N 49°21' W 004°04'716.6
2017-Jun-26 06:59N 49°17' W 004°13'1616.7
2017-Jun-26 06:00N 49°09' W 004°35'2216.6
2017-Jun-26 04:41N 48°58' W 005°03'316.3
2017-Jun-26 04:30N 48°56' W 005°07'816.1
2017-Jun-26 04:00N 48°52' W 005°17'815.7
2017-Jun-26 03:30N 48°48' W 005°28'815.2
2017-Jun-26 03:00N 48°43' W 005°36'1015.4
2017-Jun-26 02:22N 48°35' W 005°44'2514.5
2017-Jun-26 00:39N 48°12' W 005°60'5113.2
2017-Jun-25 20:48N 47°27' W 006°34'6714.3
2017-Jun-25 16:08N 46°28' W 007°21'213.9
2017-Jun-25 16:00N 46°27' W 007°22'1615.0
2017-Jun-25 14:56N 46°13' W 007°34'37711.9
2017-Jun-24 07:07N 40°08' W 009°49'216.4
2017-Jun-24 06:59N 40°06' W 009°49'816.0
2017-Jun-24 06:29N 39°58' W 009°49'1215.7
2017-Jun-24 05:42N 39°46' W 009°49'315.6
2017-Jun-24 05:30N 39°43' W 009°48'815.9
2017-Jun-24 05:00N 39°35' W 009°49'816.2
2017-Jun-24 04:30N 39°27' W 009°49'815.9
2017-Jun-24 04:00N 39°19' W 009°50'815.8
2017-Jun-24 03:30N 39°11' W 009°51'815.9
2017-Jun-24 03:00N 39°03' W 009°50'815.5
2017-Jun-24 02:30N 38°55' W 009°50'815.8
2017-Jun-24 02:00N 38°47' W 009°50'815.9
2017-Jun-24 01:30N 38°40' W 009°49'816.0
2017-Jun-24 01:01N 38°32' W 009°47'815.5
2017-Jun-24 00:30N 38°24' W 009°44'815.5
2017-Jun-24 00:00N 38°17' W 009°41'815.2
2017-Jun-23 23:30N 38°10' W 009°39'815.0
2017-Jun-23 23:00N 38°02' W 009°37'714.8
2017-Jun-23 22:31N 37°55' W 009°36'714.8
2017-Jun-23 22:00N 37°48' W 009°34'715.0
2017-Jun-23 21:31N 37°40' W 009°32'815.6
2017-Jun-23 21:01N 37°33' W 009°30'815.3
2017-Jun-23 20:31N 37°25' W 009°27'815.5
2017-Jun-23 20:01N 37°18' W 009°25'815.5
2017-Jun-23 19:30N 37°10' W 009°22'815.2
2017-Jun-23 19:01N 37°03' W 009°21'815.7
2017-Jun-23 18:31N 36°55' W 009°18'815.5
2017-Jun-23 18:01N 36°49' W 009°13'815.4
2017-Jun-23 17:30N 36°44' W 009°05'816.1
2017-Jun-23 17:00N 36°41' W 008°56'815.8
2017-Jun-23 16:30N 36°38' W 008°46'815.4
2017-Jun-23 16:00N 36°37' W 008°37'815.1
2017-Jun-23 15:30N 36°34' W 008°28'815.3
2017-Jun-23 15:01N 36°32' W 008°19'1615.5
2017-Jun-23 14:00N 36°27' W 008°01'816.1
2017-Jun-23 13:31N 36°25' W 007°51'816.2
2017-Jun-23 13:01N 36°23' W 007°41'816.4
2017-Jun-23 12:30N 36°21' W 007°31'916.9
2017-Jun-23 12:00N 36°18' W 007°21'8916.2
2017-Jun-23 06:31N 35°57' W 005°35'013.3
2017-Jun-23 06:30N 35°57' W 005°34'5 0.1
2017-Jun-21 12:19N 35°54' W 005°30'2 3.0
2017-Jun-21 11:32N 35°54' W 005°33'4 0.7
2017-Jun-21 06:01N 35°57' W 005°31'211.8
2017-Jun-21 05:52N 35°59' W 005°29'411.1
2017-Jun-21 05:30N 35°60' W 005°24'611.8
2017-Jun-21 05:00N 36°01' W 005°17'714.1
2017-Jun-21 04:30N 36°02' W 005°09'13912.7
2017-Jun-20 17:36N 36°25' W 002°19'315.0
2017-Jun-20 17:23N 36°26' W 002°15'615.2
2017-Jun-20 17:00N 36°26' W 002°08'1615.3
2017-Jun-20 15:57N 36°29' W 001°48'1515.3
2017-Jun-20 14:59N 36°31' W 001°30'1715.1
2017-Jun-20 13:51N 36°34' W 001°09'515.2
2017-Jun-20 13:30N 36°35' W 001°02'815.5
2017-Jun-20 13:00N 36°36' W 000°53'815.5
2017-Jun-20 12:30N 36°37' W 000°43'815.5
2017-Jun-20 12:00N 36°38' W 000°34'815.4
2017-Jun-20 11:27N 36°40' W 000°23'715.3
2017-Jun-20 11:00N 36°41' W 000°15'715.0
2017-Jun-20 10:30N 36°42' W 000°06'714.9
2017-Jun-20 10:00N 36°43' E 000°03'714.8
2017-Jun-20 09:30N 36°45' E 000°13'714.6
2017-Jun-20 09:00N 36°46' E 000°22'714.3
2017-Jun-20 08:30N 36°47' E 000°30'714.5
2017-Jun-20 08:00N 36°48' E 000°39'714.6
2017-Jun-20 07:30N 36°49' E 000°48'714.4
2017-Jun-20 07:00N 36°51' E 000°57'714.6
2017-Jun-20 06:30N 36°52' E 001°06'714.7
2017-Jun-20 06:00N 36°54' E 001°15'2515.1
2017-Jun-20 04:21N 36°58' E 001°46'1715.2
2017-Jun-20 03:14N 36°60' E 002°07'515.2
2017-Jun-20 02:53N 37°00' E 002°14'615.1
2017-Jun-20 02:30N 37°01' E 002°21'714.9
2017-Jun-20 02:00N 37°03' E 002°30'1214.9
2017-Jun-20 01:12N 37°04' E 002°45'314.9
2017-Jun-20 01:00N 37°05' E 002°49'715.0
2017-Jun-20 00:30N 37°06' E 002°58'714.9
2017-Jun-20 00:00N 37°07' E 003°07'814.8
2017-Jun-19 23:30N 37°09' E 003°16'714.8
2017-Jun-19 23:00N 37°10' E 003°25'714.7
2017-Jun-19 22:30N 37°11' E 003°34'714.5
2017-Jun-19 22:00N 37°12' E 003°43'714.4
2017-Jun-19 21:30N 37°14' E 003°52'714.5
2017-Jun-19 21:00N 37°15' E 004°01'714.6
2017-Jun-19 20:30N 37°16' E 004°10'714.7
2017-Jun-19 20:00N 37°17' E 004°19'714.6
2017-Jun-19 19:30N 37°18' E 004°28'714.8
2017-Jun-19 19:00N 37°19' E 004°38'714.9
2017-Jun-19 18:30N 37°21' E 004°47'714.8
2017-Jun-19 18:00N 37°22' E 004°56'714.8
2017-Jun-19 17:30N 37°24' E 005°05'715.0
2017-Jun-19 17:00N 37°24' E 005°14'814.9
2017-Jun-19 16:30N 37°25' E 005°24'714.9
2017-Jun-19 16:00N 37°26' E 005°33'714.8
2017-Jun-19 15:30N 37°28' E 005°42'714.8
2017-Jun-19 15:00N 37°29' E 005°51'1814.9
2017-Jun-19 13:49N 37°32' E 006°13'1714.8
2017-Jun-19 12:39N 37°35' E 006°35'4414.8
2017-Jun-19 09:42N 37°42' E 007°29'1914.8
2017-Jun-19 08:26N 37°43' E 007°53'  

Dump ship's entire track history